Mcallister Responder — WDC8665 — position and weather

sailwx.info

Track history (hours):
 
Tides and Currents Weather Stations Pressure Air Temp Water Temp Dewpoint Dewpoint Depression Visibility Wind Speed Wind Dir Waves Ship Positions

Mcallister Responder

Owner: McAllister Towing & Transportation, Staten Island, NY. More information available from US FCC via Universal Licensing System and Coast Guard Vessel Documentation Center.

Last reported at 2018-Jul-19 13:00 UTC. Time now 2018-Jul-19 13:20 UTC.
Position N 39°54' W 075°12'.

Length 34 m.

Type: Tug. MMSI: 367091050.

Date/timePositionNaut miles runAvg speedWind from/ knotsBaromVisibWave heightAir tempDewpointWater temp
2018-Jul-19 13:00N 39°54' W 075°12'1 2.9
2018-Jul-19 12:31N 39°53' W 075°10'2 4.4
2018-Jul-19 12:00N 39°54' W 075°08'0 0.5
2018-Jul-19 11:30N 39°54' W 075°08'1 2.5
2018-Jul-19 11:00N 39°53' W 075°09'3 6.4
2018-Jul-19 10:31N 39°52' W 075°13'2 3.1
2018-Jul-19 10:00N 39°54' W 075°12'0 0.5
2018-Jul-19 09:30N 39°54' W 075°12'0 0.0
2018-Jul-19 09:01N 39°54' W 075°12'0 0.0
2018-Jul-19 08:31N 39°54' W 075°12'0 0.0
2018-Jul-19 08:01N 39°54' W 075°12'0 0.0
2018-Jul-19 07:30N 39°54' W 075°12'0 0.0
2018-Jul-19 07:00N 39°54' W 075°12'0 0.0
2018-Jul-19 06:31N 39°54' W 075°12'0 0.0
2018-Jul-19 06:01N 39°54' W 075°12'0 0.0
2018-Jul-19 05:30N 39°54' W 075°12'0 0.0
2018-Jul-19 05:00N 39°54' W 075°12'0 0.0
2018-Jul-19 04:30N 39°54' W 075°12'0 0.0
2018-Jul-19 04:01N 39°54' W 075°12'0 0.0
2018-Jul-19 03:31N 39°54' W 075°12'0 0.0
2018-Jul-19 03:01N 39°54' W 075°12'0 0.0
2018-Jul-19 02:30N 39°54' W 075°12'0 0.0
2018-Jul-19 02:01N 39°54' W 075°12'0 0.0
2018-Jul-19 01:30N 39°54' W 075°12'0 0.0
2018-Jul-19 01:00N 39°54' W 075°12'0 0.0
2018-Jul-19 00:30N 39°54' W 075°12'0 0.0
2018-Jul-19 00:00N 39°54' W 075°12'0 0.0
2018-Jul-18 23:30N 39°54' W 075°12'0 0.0
2018-Jul-18 23:00N 39°54' W 075°12'2 3.9
2018-Jul-18 22:30N 39°52' W 075°13'0 0.0
2018-Jul-18 22:00N 39°52' W 075°13'0 0.0
2018-Jul-18 21:30N 39°52' W 075°13'0 0.6
2018-Jul-18 21:00N 39°52' W 075°13'3 5.4
2018-Jul-18 20:30N 39°51' W 075°17'2 3.5
2018-Jul-18 20:00N 39°51' W 075°15'3 6.4
2018-Jul-18 19:30N 39°54' W 075°12'0 0.0
2018-Jul-18 19:00N 39°54' W 075°12'0 0.0
2018-Jul-18 18:31N 39°54' W 075°12'0 0.0
2018-Jul-18 18:00N 39°54' W 075°12'0 0.0
2018-Jul-18 17:30N 39°54' W 075°12'0 0.0
2018-Jul-18 17:00N 39°54' W 075°12'0 0.0
2018-Jul-18 16:31N 39°54' W 075°12'0 0.0
2018-Jul-18 16:00N 39°54' W 075°12'0 0.0
2018-Jul-18 15:30N 39°54' W 075°12'0 0.0
2018-Jul-18 15:00N 39°54' W 075°12'0 0.0
2018-Jul-18 14:30N 39°54' W 075°12'0 0.0
2018-Jul-18 13:30N 39°54' W 075°12'0 0.0
2018-Jul-18 13:00N 39°54' W 075°12'1 2.0
2018-Jul-18 12:30N 39°53' W 075°11'3 6.6
2018-Jul-18 12:01N 39°55' W 075°08'3 6.8
2018-Jul-18 11:31N 39°58' W 075°07'1 0.7
2018-Jul-18 10:30N 39°59' W 075°06'1 3.0
2018-Jul-18 10:00N 39°58' W 075°08'4 8.7
2018-Jul-18 09:30N 39°54' W 075°08'3 5.5
2018-Jul-18 09:00N 39°54' W 075°12'0 0.0
2018-Jul-18 08:31N 39°54' W 075°12'0 0.0
2018-Jul-18 08:01N 39°54' W 075°12'0 0.0
2018-Jul-18 07:30N 39°54' W 075°12'0 0.0
2018-Jul-18 07:00N 39°54' W 075°12'0 0.0
2018-Jul-18 06:30N 39°54' W 075°12'0 0.0
2018-Jul-18 06:00N 39°54' W 075°12'0 0.0
2018-Jul-18 05:31N 39°54' W 075°12'0 0.0
2018-Jul-18 05:01N 39°54' W 075°12'0 0.0
2018-Jul-18 04:30N 39°54' W 075°12'0 0.0
2018-Jul-18 04:00N 39°54' W 075°12'0 0.0
2018-Jul-18 03:30N 39°54' W 075°12'0 0.0
2018-Jul-18 03:01N 39°54' W 075°12'0 0.0
2018-Jul-18 02:30N 39°54' W 075°12'0 0.0
2018-Jul-18 02:00N 39°54' W 075°12'0 0.0
2018-Jul-18 01:30N 39°54' W 075°12'0 0.0
2018-Jul-18 01:00N 39°54' W 075°12'0 0.0
2018-Jul-18 00:30N 39°54' W 075°12'0 0.0
2018-Jul-18 00:00N 39°54' W 075°12'0 0.0
2018-Jul-17 23:30N 39°54' W 075°12'0 0.0
2018-Jul-17 23:00N 39°54' W 075°12'0 0.0
2018-Jul-17 22:30N 39°54' W 075°12'0 0.2
2018-Jul-17 22:00N 39°54' W 075°12'3 6.3
2018-Jul-17 21:30N 39°51' W 075°14'5 9.7
2018-Jul-17 21:00N 39°51' W 075°21'3 5.3
2018-Jul-17 20:30N 39°49' W 075°24'1 2.6
2018-Jul-17 20:00N 39°48' W 075°25'0 0.7
2018-Jul-17 19:30N 39°48' W 075°25'1 1.1
2018-Jul-17 19:00N 39°49' W 075°24'0 0.1
2018-Jul-17 18:30N 39°49' W 075°24'0 0.2
2018-Jul-17 18:00N 39°49' W 075°24'2 4.1
2018-Jul-17 17:30N 39°48' W 075°27'2 4.1
2018-Jul-17 17:00N 39°49' W 075°24'0 0.0
2018-Jul-17 16:30N 39°49' W 075°24'0 1.0
2018-Jul-17 16:00N 39°48' W 075°24'0 0.8
2018-Jul-17 15:30N 39°49' W 075°24'0 0.1
2018-Jul-17 15:00N 39°49' W 075°24'0 0.3
2018-Jul-17 14:30N 39°49' W 075°24'4 8.4
2018-Jul-17 14:00N 39°51' W 075°20'3 6.2
2018-Jul-17 13:30N 39°51' W 075°16'0 0.0
2018-Jul-17 13:00N 39°51' W 075°16'0 0.0
2018-Jul-17 12:30N 39°51' W 075°16'0 0.0
2018-Jul-17 12:00N 39°51' W 075°16'0 0.0
2018-Jul-17 11:30N 39°51' W 075°16'0 0.0
2018-Jul-17 11:00N 39°51' W 075°16'0 0.0
2018-Jul-17 10:31N 39°51' W 075°16'0 0.0
2018-Jul-17 10:00N 39°51' W 075°16'0 0.0
2018-Jul-17 09:30N 39°51' W 075°16'0 0.0
2018-Jul-17 09:00N 39°51' W 075°16'0 0.6
2018-Jul-17 08:30N 39°51' W 075°15'4 7.0
2018-Jul-17 08:00N 39°53' W 075°11'1 2.9
2018-Jul-17 07:31N 39°53' W 075°10'0 0.6
2018-Jul-17 07:01N 39°53' W 075°10'1 1.3
2018-Jul-17 06:30N 39°53' W 075°11'0 0.0
2018-Jul-17 06:01N 39°53' W 075°11'0 0.0
2018-Jul-17 05:31N 39°53' W 075°11'0 0.0
2018-Jul-17 05:01N 39°53' W 075°11'1 1.4
2018-Jul-17 04:30N 39°53' W 075°11'1 1.9
2018-Jul-17 04:00N 39°54' W 075°12'0 0.0
2018-Jul-17 03:30N 39°54' W 075°12'0 0.0
2018-Jul-17 03:00N 39°54' W 075°12'0 0.0
2018-Jul-17 02:30N 39°54' W 075°12'0 0.0
2018-Jul-17 02:00N 39°54' W 075°12'0 0.0
2018-Jul-17 01:30N 39°54' W 075°12'0 0.0
2018-Jul-17 01:00N 39°54' W 075°12'0 0.0
2018-Jul-17 00:30N 39°54' W 075°12'0 0.0
2018-Jul-16 23:30N 39°54' W 075°12'0 0.0
2018-Jul-16 23:00N 39°54' W 075°12'0 0.0
2018-Jul-16 22:30N 39°54' W 075°12'0 0.0
2018-Jul-16 22:00N 39°54' W 075°12'2 4.5
2018-Jul-16 21:30N 39°52' W 075°13'5 9.0
2018-Jul-16 20:59N 39°51' W 075°19'4 8.1
2018-Jul-16 20:31N 39°49' W 075°24'0 0.9
2018-Jul-16 20:00N 39°49' W 075°24'0 0.2
2018-Jul-16 19:30N 39°49' W 075°24'0 0.2
2018-Jul-16 19:00N 39°49' W 075°24'0 0.0
2018-Jul-16 18:30N 39°49' W 075°24'1 2.7
2018-Jul-16 18:00N 39°48' W 075°26'1 2.7
2018-Jul-16 17:30N 39°49' W 075°24'1 1.4
2018-Jul-16 17:00N 39°49' W 075°24'2 4.9
2018-Jul-16 16:30N 39°51' W 075°21'3 6.2
2018-Jul-16 16:00N 39°51' W 075°17'4 7.3
2018-Jul-16 15:30N 39°52' W 075°13'2 3.2
2018-Jul-16 15:00N 39°54' W 075°12'0 0.0
2018-Jul-16 14:30N 39°54' W 075°12'0 0.0
2018-Jul-16 14:00N 39°54' W 075°12'0 0.0
2018-Jul-16 13:31N 39°54' W 075°12'0 0.0
2018-Jul-16 13:01N 39°54' W 075°12'0 0.0
2018-Jul-16 12:30N 39°54' W 075°12'0 0.0
2018-Jul-16 12:00N 39°54' W 075°12'0 0.0
2018-Jul-16 11:30N 39°54' W 075°12'0 0.0
2018-Jul-16 11:01N 39°54' W 075°12'0 0.0
2018-Jul-16 10:31N 39°54' W 075°12'0 0.0
2018-Jul-16 10:01N 39°54' W 075°12'0 0.0
2018-Jul-16 09:31N 39°54' W 075°12'0 0.0
2018-Jul-16 09:00N 39°54' W 075°12'2 3.9
2018-Jul-16 08:30N 39°52' W 075°13'0 0.0
2018-Jul-16 08:00N 39°52' W 075°13'0 0.0
2018-Jul-16 07:30N 39°52' W 075°13'0 0.0
2018-Jul-16 07:00N 39°52' W 075°13'0 0.2
2018-Jul-16 06:30N 39°52' W 075°13'2 3.6
2018-Jul-16 06:00N 39°51' W 075°15'2 3.7
2018-Jul-16 05:30N 39°52' W 075°13'2 3.9
2018-Jul-16 05:00N 39°54' W 075°12'0 0.0
2018-Jul-16 04:30N 39°54' W 075°12'0 0.0
2018-Jul-16 04:00N 39°54' W 075°12'0 0.0
2018-Jul-16 03:30N 39°54' W 075°12'0 0.0
2018-Jul-16 03:00N 39°54' W 075°12'0 0.0
2018-Jul-16 02:30N 39°54' W 075°12'0 0.0
2018-Jul-16 02:00N 39°54' W 075°12'0 0.0
2018-Jul-16 01:30N 39°54' W 075°12'0 0.0
2018-Jul-16 01:00N 39°54' W 075°12'0 0.0
2018-Jul-16 00:30N 39°54' W 075°12'0 0.0
2018-Jul-16 00:00N 39°54' W 075°12'0 0.0
2018-Jul-15 23:30N 39°54' W 075°12'0 0.0
2018-Jul-15 23:00N 39°54' W 075°12'0 0.0
2018-Jul-15 22:30N 39°54' W 075°12'0 0.0
2018-Jul-15 22:00N 39°54' W 075°12'0 0.0
2018-Jul-15 21:30N 39°54' W 075°12'0 0.0
2018-Jul-15 21:00N 39°54' W 075°12'0 0.0
2018-Jul-15 20:30N 39°54' W 075°12'0 0.0
2018-Jul-15 20:00N 39°54' W 075°12'0 0.0
2018-Jul-15 19:30N 39°54' W 075°12'0 0.0
2018-Jul-15 19:00N 39°54' W 075°12'0 0.0
2018-Jul-15 18:30N 39°54' W 075°12'0 0.0
2018-Jul-15 18:00N 39°54' W 075°12'0 0.0
2018-Jul-15 17:26N 39°54' W 075°12'0 0.0
2018-Jul-15 17:00N 39°54' W 075°12'0 0.0
2018-Jul-15 16:30N 39°54' W 075°12'0 0.0
2018-Jul-15 16:00N 39°54' W 075°12'0 0.0
2018-Jul-15 15:30N 39°54' W 075°12'0 0.0
2018-Jul-15 15:00N 39°54' W 075°12'0 0.0
2018-Jul-15 14:30N 39°54' W 075°12'0 0.0
2018-Jul-15 14:00N 39°54' W 075°12'2 3.0
2018-Jul-15 13:30N 39°53' W 075°10'2 4.1
2018-Jul-15 13:00N 39°54' W 075°08'0 0.0
2018-Jul-15 12:30N 39°54' W 075°08'0 0.0
2018-Jul-15 12:00N 39°54' W 075°08'0 0.0
2018-Jul-15 11:30N 39°54' W 075°08'0 0.0
2018-Jul-15 11:01N 39°54' W 075°08'0 0.0
2018-Jul-15 10:30N 39°54' W 075°08'0 0.3
2018-Jul-15 10:00N 39°54' W 075°08'0 0.0
2018-Jul-15 09:30N 39°54' W 075°08'0 0.0
2018-Jul-15 09:00N 39°54' W 075°08'0 0.0
2018-Jul-15 08:30N 39°54' W 075°08'0 0.0
2018-Jul-15 08:00N 39°54' W 075°08'0 0.0
2018-Jul-15 07:30N 39°54' W 075°08'0 0.0
2018-Jul-15 07:00N 39°54' W 075°08'0 0.0
2018-Jul-15 06:31N 39°54' W 075°08'0 0.3
2018-Jul-15 06:00N 39°54' W 075°08'1 1.7
2018-Jul-15 05:30N 39°55' W 075°08'0 0.5
2018-Jul-15 05:00N 39°55' W 075°08'1 2.7
2018-Jul-15 04:30N 39°54' W 075°08'3 5.8
2018-Jul-15 04:00N 39°54' W 075°12'0 0.3
2018-Jul-15 03:30N 39°54' W 075°12'0 0.0
2018-Jul-15 03:00N 39°54' W 075°12'0 0.0
2018-Jul-15 02:31N 39°54' W 075°12'0 0.0
2018-Jul-15 02:00N 39°54' W 075°12'0 0.0
2018-Jul-15 01:31N 39°54' W 075°12'0 0.0
2018-Jul-15 01:00N 39°54' W 075°12'0 0.5
2018-Jul-15 00:30N 39°54' W 075°12'0 0.5
2018-Jul-15 00:00N 39°54' W 075°12'0 0.0
2018-Jul-14 23:30N 39°54' W 075°12'0 0.0
2018-Jul-14 23:01N 39°54' W 075°12'0 0.0
2018-Jul-14 22:30N 39°54' W 075°12'0 0.0
2018-Jul-14 22:00N 39°54' W 075°12'0 0.0
2018-Jul-14 21:30N 39°54' W 075°12'0 0.0
2018-Jul-14 21:00N 39°54' W 075°12'0 0.0
2018-Jul-14 20:30N 39°54' W 075°12'0 0.0
2018-Jul-14 20:00N 39°54' W 075°12'0 0.0
2018-Jul-14 19:30N 39°54' W 075°12'0 0.0
2018-Jul-14 19:00N 39°54' W 075°12'0 0.0
2018-Jul-14 18:30N 39°54' W 075°12'0 0.0
2018-Jul-14 18:00N 39°54' W 075°12'0 0.0
2018-Jul-14 17:30N 39°54' W 075°12'0 0.0
2018-Jul-14 17:00N 39°54' W 075°12'0 0.0
2018-Jul-14 16:30N 39°54' W 075°12'0 0.0
2018-Jul-14 16:00N 39°54' W 075°12'1 1.5
2018-Jul-14 15:30N 39°53' W 075°12'3 6.2
2018-Jul-14 15:00N 39°54' W 075°08'0 0.7
2018-Jul-14 14:30N 39°54' W 075°08'0 0.4
2018-Jul-14 13:31N 39°54' W 075°08'0 0.0
2018-Jul-14 13:00N 39°54' W 075°08'0 0.0
2018-Jul-14 12:30N 39°54' W 075°08'0 0.0
2018-Jul-14 12:00N 39°54' W 075°08'0 0.0
2018-Jul-14 11:30N 39°54' W 075°08'0 0.0
2018-Jul-14 11:00N 39°54' W 075°08'1 2.8
2018-Jul-14 10:30N 39°53' W 075°09'2 4.7
2018-Jul-14 10:00N 39°53' W 075°12'0 0.6
2018-Jul-14 09:30N 39°54' W 075°12'0 0.0
2018-Jul-14 09:00N 39°54' W 075°12'0 0.0
2018-Jul-14 08:30N 39°54' W 075°12'0 0.0
2018-Jul-14 08:00N 39°54' W 075°12'0 0.0
2018-Jul-14 07:30N 39°54' W 075°12'0 0.0
2018-Jul-14 07:00N 39°54' W 075°12'0 0.0
2018-Jul-14 06:30N 39°54' W 075°12'0 0.0
2018-Jul-14 06:00N 39°54' W 075°12'0 0.0
2018-Jul-14 05:31N 39°54' W 075°12'0 0.0
2018-Jul-14 05:00N 39°54' W 075°12'0 0.0
2018-Jul-14 04:30N 39°54' W 075°12'0 0.0
2018-Jul-14 04:00N 39°54' W 075°12'0 0.0
2018-Jul-14 03:30N 39°54' W 075°12'0 0.0
2018-Jul-14 03:00N 39°54' W 075°12'0 0.0
2018-Jul-14 02:31N 39°54' W 075°12'0 0.0
2018-Jul-14 02:00N 39°54' W 075°12'0 0.5
2018-Jul-14 01:30N 39°54' W 075°12'0 0.2
2018-Jul-14 01:00N 39°54' W 075°12'0 0.4
2018-Jul-14 00:30N 39°54' W 075°12'0 0.0
2018-Jul-14 00:00N 39°54' W 075°12'0 0.0
2018-Jul-13 23:30N 39°54' W 075°12'0 0.0
2018-Jul-13 23:00N 39°54' W 075°12'0 0.0
2018-Jul-13 22:30N 39°54' W 075°12'0 0.0
2018-Jul-13 22:00N 39°54' W 075°12'0 0.0
2018-Jul-13 21:30N 39°54' W 075°12'0 0.0
2018-Jul-13 20:59N 39°54' W 075°12'0 0.0
2018-Jul-13 20:30N 39°54' W 075°12'0 0.0
2018-Jul-13 20:00N 39°54' W 075°12'0 0.0
2018-Jul-13 19:30N 39°54' W 075°12'0 0.0
2018-Jul-13 19:00N 39°54' W 075°12'0 0.0
2018-Jul-13 18:30N 39°54' W 075°12'0 0.0
2018-Jul-13 18:00N 39°54' W 075°12'0 0.0
2018-Jul-13 17:30N 39°54' W 075°12'0 0.0
2018-Jul-13 17:00N 39°54' W 075°12'0 0.0
2018-Jul-13 16:30N 39°54' W 075°12'0 0.0
2018-Jul-13 16:00N 39°54' W 075°12'0 0.0
2018-Jul-13 15:30N 39°54' W 075°12'0 0.0
2018-Jul-13 15:00N 39°54' W 075°12'0 0.0
2018-Jul-13 14:00N 39°54' W 075°12'0 0.0
2018-Jul-13 13:30N 39°54' W 075°12'0 0.0
2018-Jul-13 13:01N 39°54' W 075°12'0 0.0
2018-Jul-13 12:30N 39°54' W 075°12'0 0.0
2018-Jul-13 12:00N 39°54' W 075°12'0 0.0
2018-Jul-13 11:29N 39°54' W 075°12'0 0.0
2018-Jul-13 11:00N 39°54' W 075°12'0 0.0
2018-Jul-13 10:30N 39°54' W 075°12'0 0.0
2018-Jul-13 10:00N 39°54' W 075°12'0 0.0
2018-Jul-13 09:30N 39°54' W 075°12'0 0.0
2018-Jul-13 09:00N 39°54' W 075°12'0 0.0
2018-Jul-13 08:30N 39°54' W 075°12'0 0.0
2018-Jul-13 08:00N 39°54' W 075°12'0 0.0
2018-Jul-13 07:30N 39°54' W 075°12'0 0.0
2018-Jul-13 07:00N 39°54' W 075°12'0 0.0
2018-Jul-13 06:30N 39°54' W 075°12'0 0.0
2018-Jul-13 06:00N 39°54' W 075°12'0 0.0
2018-Jul-13 05:30N 39°54' W 075°12'0 0.0
2018-Jul-13 05:00N 39°54' W 075°12'0 0.0
2018-Jul-13 04:30N 39°54' W 075°12'0 0.0
2018-Jul-13 04:00N 39°54' W 075°12'0 0.0
2018-Jul-13 03:30N 39°54' W 075°12'0 0.0
2018-Jul-13 03:00N 39°54' W 075°12'0 0.0
2018-Jul-13 02:30N 39°54' W 075°12'0 0.0
2018-Jul-13 02:00N 39°54' W 075°12'0 0.0
2018-Jul-13 01:30N 39°54' W 075°12'0 0.0
2018-Jul-13 01:00N 39°54' W 075°12'0 0.0
2018-Jul-13 00:30N 39°54' W 075°12'0 0.0
2018-Jul-13 00:00N 39°54' W 075°12'0 0.0
2018-Jul-12 23:30N 39°54' W 075°12'0 0.0
2018-Jul-12 23:00N 39°54' W 075°12'0 0.0
2018-Jul-12 22:30N 39°54' W 075°12'0 0.0
2018-Jul-12 22:00N 39°54' W 075°12'0 0.0
2018-Jul-12 21:30N 39°54' W 075°12'0 0.0
2018-Jul-12 21:00N 39°54' W 075°12'0 0.0
2018-Jul-12 20:30N 39°54' W 075°12'0 0.0
2018-Jul-12 20:00N 39°54' W 075°12'0 0.0
2018-Jul-12 19:30N 39°54' W 075°12'0 0.0
2018-Jul-12 19:00N 39°54' W 075°12'0 0.0
2018-Jul-12 18:29N 39°54' W 075°12'0 0.0
2018-Jul-12 18:00N 39°54' W 075°12'0 0.0
2018-Jul-12 17:30N 39°54' W 075°12'0 0.0
2018-Jul-12 17:00N 39°54' W 075°12'0 0.0
2018-Jul-12 16:30N 39°54' W 075°12'0 0.0
2018-Jul-12 16:00N 39°54' W 075°12'0 0.0
2018-Jul-12 15:30N 39°54' W 075°12'0 0.0
2018-Jul-12 15:00N 39°54' W 075°12'0 0.0
2018-Jul-12 14:30N 39°54' W 075°12'0 0.0
2018-Jul-12 14:00N 39°54' W 075°12'0 0.0
2018-Jul-12 13:30N 39°54' W 075°12'0 0.0
2018-Jul-12 13:00N 39°54' W 075°12'0 0.0
2018-Jul-12 12:30N 39°54' W 075°12'0 0.0
2018-Jul-12 12:00N 39°54' W 075°12'0 0.0
2018-Jul-12 11:30N 39°54' W 075°12'0 0.0
2018-Jul-12 11:00N 39°54' W 075°12'0 0.0
2018-Jul-12 10:30N 39°54' W 075°12'0 0.0
2018-Jul-12 10:00N 39°54' W 075°12'0 0.0
2018-Jul-12 09:30N 39°54' W 075°12'0 0.0
2018-Jul-12 09:00N 39°54' W 075°12'0 0.0
2018-Jul-12 08:30N 39°54' W 075°12'0 0.0
2018-Jul-12 08:00N 39°54' W 075°12'0 0.0
2018-Jul-12 07:30N 39°54' W 075°12'0 0.0
2018-Jul-12 07:00N 39°54' W 075°12'0 0.0
2018-Jul-12 06:30N 39°54' W 075°12'0 0.0
2018-Jul-12 06:00N 39°54' W 075°12'0 0.0
2018-Jul-12 05:30N 39°54' W 075°12'0 0.0
2018-Jul-12 05:00N 39°54' W 075°12'0 0.0
2018-Jul-12 04:30N 39°54' W 075°12'0 0.0
2018-Jul-12 04:00N 39°54' W 075°12'0 0.0
2018-Jul-12 03:30N 39°54' W 075°12'0 0.0
2018-Jul-12 03:00N 39°54' W 075°12'0 0.0
2018-Jul-12 02:30N 39°54' W 075°12'0 0.0
2018-Jul-12 02:00N 39°54' W 075°12'0 0.0
2018-Jul-12 01:30N 39°54' W 075°12'0 0.0
2018-Jul-12 01:00N 39°54' W 075°12'0 0.0
2018-Jul-12 00:30N 39°54' W 075°12'0 0.0
2018-Jul-12 00:00N 39°54' W 075°12'0 0.0
2018-Jul-11 23:30N 39°54' W 075°12'0 0.0
2018-Jul-11 23:00N 39°54' W 075°12'0 0.6
2018-Jul-11 22:30N 39°53' W 075°12'3 5.2
2018-Jul-11 22:00N 39°54' W 075°08'2 4.7
2018-Jul-11 21:30N 39°53' W 075°11'1 2.1
2018-Jul-11 21:00N 39°54' W 075°12'0 0.0
2018-Jul-11 20:30N 39°54' W 075°12'0 0.0
2018-Jul-11 20:01N 39°54' W 075°12'0 0.0
2018-Jul-11 19:30N 39°54' W 075°12'3 5.1
2018-Jul-11 19:00N 39°52' W 075°14'4 8.5
2018-Jul-11 18:30N 39°51' W 075°19'4 8.4
2018-Jul-11 18:00N 39°49' W 075°24'5 8.9
2018-Jul-11 17:28N 39°46' W 075°29'3 7.3
2018-Jul-11 17:01N 39°43' W 075°31'0 0.3
2018-Jul-11 16:30N 39°43' W 075°31'1 1.8
2018-Jul-11 16:00N 39°43' W 075°30'1 2.5
2018-Jul-11 15:30N 39°44' W 075°30'4 8.9
2018-Jul-11 15:01N 39°47' W 075°27'4 8.9
2018-Jul-11 14:30N 39°50' W 075°22'4 7.9
2018-Jul-11 14:00N 39°51' W 075°17'4 7.7
2018-Jul-11 13:30N 39°52' W 075°12'1 2.9
2018-Jul-11 13:00N 39°54' W 075°12'0 0.0
2018-Jul-11 12:30N 39°54' W 075°12'0 0.0
2018-Jul-11 12:01N 39°54' W 075°12'0 0.0
2018-Jul-11 11:31N 39°54' W 075°12'0 0.0
2018-Jul-11 11:00N 39°54' W 075°12'0 0.0
2018-Jul-11 10:30N 39°54' W 075°12'0 0.0
2018-Jul-11 10:00N 39°54' W 075°12'0 0.0
2018-Jul-11 09:31N 39°54' W 075°12'0 0.0
2018-Jul-11 09:00N 39°54' W 075°12'0 0.0
2018-Jul-11 08:30N 39°54' W 075°12'0 0.0
2018-Jul-11 08:00N 39°54' W 075°12'0 0.0
2018-Jul-11 07:31N 39°54' W 075°12'0 0.0
2018-Jul-11 07:00N 39°54' W 075°12'0 0.0
2018-Jul-11 06:30N 39°54' W 075°12'0 0.0
2018-Jul-11 06:00N 39°54' W 075°12'0 0.0
2018-Jul-11 05:31N 39°54' W 075°12'0 0.0
2018-Jul-11 05:00N 39°54' W 075°12'0 0.0
2018-Jul-11 04:31N 39°54' W 075°12'0 0.0
2018-Jul-11 04:01N 39°54' W 075°12'0 0.0
2018-Jul-11 03:31N 39°54' W 075°12'0 0.0
2018-Jul-11 03:01N 39°54' W 075°12'0 0.0
2018-Jul-11 02:29N 39°54' W 075°12'3 7.2
2018-Jul-11 02:00N 39°51' W 075°15'611.5
2018-Jul-11 01:30N 39°50' W 075°22'1 1.4
2018-Jul-11 01:00N 39°49' W 075°23'5 9.9
2018-Jul-11 00:30N 39°46' W 075°28'510.1
2018-Jul-11 00:01N 39°42' W 075°31'5 9.9
2018-Jul-10 23:31N 39°38' W 075°34'4 8.4
2018-Jul-10 23:01N 39°34' W 075°34'4 8.1
2018-Jul-10 22:30N 39°33' W 075°39'4 9.0
2018-Jul-10 22:01N 39°32' W 075°45'4 8.6
2018-Jul-10 21:31N 39°32' W 075°50'5 9.2
2018-Jul-10 21:01N 39°30' W 075°56'5 9.6
2018-Jul-10 20:27N 39°26' W 076°00'26 7.4
2018-Jul-10 16:58N 39°11' W 076°28'5 0.5
2018-Jul-10 05:41N 39°13' W 076°34'0 0.0
2018-Jul-10 05:20N 39°13' W 076°34'0 0.1
2018-Jul-10 05:00N 39°13' W 076°34'2 4.6
2018-Jul-10 04:30N 39°13' W 076°31'4 8.8
2018-Jul-10 04:00N 39°11' W 076°26'5 8.6
2018-Jul-10 03:22N 39°09' W 076°20'4 8.6
2018-Jul-10 02:58N 39°11' W 076°17'21 9.3
2018-Jul-10 00:41N 39°27' W 075°59'4 8.8
2018-Jul-10 00:16N 39°30' W 075°55'2 7.6
2018-Jul-10 00:00N 39°31' W 075°53'4 7.8
2018-Jul-09 23:30N 39°32' W 075°48'4 8.6
2018-Jul-09 23:01N 39°33' W 075°43'4 8.1
2018-Jul-09 22:30N 39°33' W 075°38'4 7.2
2018-Jul-09 22:01N 39°34' W 075°33'3 6.8
2018-Jul-09 21:31N 39°38' W 075°34'4 8.0
2018-Jul-09 21:00N 39°41' W 075°31'5 9.3
2018-Jul-09 20:30N 39°45' W 075°29'510.0
2018-Jul-09 20:00N 39°49' W 075°24'2 4.8
2018-Jul-09 19:31N 39°50' W 075°22'611.4
2018-Jul-09 19:00N 39°51' W 075°15'3 6.7
2018-Jul-09 18:30N 39°54' W 075°12'0 0.0
2018-Jul-09 18:00N 39°54' W 075°12'0 0.0
2018-Jul-09 17:30N 39°54' W 075°12'0 0.0
2018-Jul-09 17:00N 39°54' W 075°12'0 0.0
2018-Jul-09 16:30N 39°54' W 075°12'0 0.0
2018-Jul-09 16:00N 39°54' W 075°12'0 0.0
2018-Jul-09 15:30N 39°54' W 075°12'0 0.0
2018-Jul-09 15:00N 39°54' W 075°12'0 0.0
2018-Jul-09 14:30N 39°54' W 075°12'0 0.0
2018-Jul-09 14:00N 39°54' W 075°12'0 0.0
2018-Jul-09 13:31N 39°54' W 075°12'0 0.0
2018-Jul-09 13:01N 39°54' W 075°12'  
Track history (hours):
 
Tides and Currents Weather Stations Pressure Air Temp Water Temp Dewpoint Dewpoint Depression Visibility Wind Speed Wind Dir Waves Ship Positions

Mcallister Responder

Owner: McAllister Towing & Transportation, Staten Island, NY. More information available from US FCC via Universal Licensing System and Coast Guard Vessel Documentation Center.

Last reported at 2018-Jul-19 13:00 UTC. Time now 2018-Jul-19 13:20 UTC.
Position N 39°54' W 075°12'.

Length 34 m.

Type: Tug. MMSI: 367091050.

Date/timePositionNaut miles runAvg speedWind from/ knotsBaromVisibWave heightAir tempDewpointWater temp
2018-Jul-19 13:00N 39°54' W 075°12'1 2.9
2018-Jul-19 12:31N 39°53' W 075°10'2 4.4
2018-Jul-19 12:00N 39°54' W 075°08'0 0.5
2018-Jul-19 11:30N 39°54' W 075°08'1 2.5
2018-Jul-19 11:00N 39°53' W 075°09'3 6.4
2018-Jul-19 10:31N 39°52' W 075°13'2 3.1
2018-Jul-19 10:00N 39°54' W 075°12'0 0.5
2018-Jul-19 09:30N 39°54' W 075°12'0 0.0
2018-Jul-19 09:01N 39°54' W 075°12'0 0.0
2018-Jul-19 08:31N 39°54' W 075°12'0 0.0
2018-Jul-19 08:01N 39°54' W 075°12'0 0.0
2018-Jul-19 07:30N 39°54' W 075°12'0 0.0
2018-Jul-19 07:00N 39°54' W 075°12'0 0.0
2018-Jul-19 06:31N 39°54' W 075°12'0 0.0
2018-Jul-19 06:01N 39°54' W 075°12'0 0.0
2018-Jul-19 05:30N 39°54' W 075°12'0 0.0
2018-Jul-19 05:00N 39°54' W 075°12'0 0.0
2018-Jul-19 04:30N 39°54' W 075°12'0 0.0
2018-Jul-19 04:01N 39°54' W 075°12'0 0.0
2018-Jul-19 03:31N 39°54' W 075°12'0 0.0
2018-Jul-19 03:01N 39°54' W 075°12'0 0.0
2018-Jul-19 02:30N 39°54' W 075°12'0 0.0
2018-Jul-19 02:01N 39°54' W 075°12'0 0.0
2018-Jul-19 01:30N 39°54' W 075°12'0 0.0
2018-Jul-19 01:00N 39°54' W 075°12'0 0.0
2018-Jul-19 00:30N 39°54' W 075°12'0 0.0
2018-Jul-19 00:00N 39°54' W 075°12'0 0.0
2018-Jul-18 23:30N 39°54' W 075°12'0 0.0
2018-Jul-18 23:00N 39°54' W 075°12'2 3.9
2018-Jul-18 22:30N 39°52' W 075°13'0 0.0
2018-Jul-18 22:00N 39°52' W 075°13'0 0.0
2018-Jul-18 21:30N 39°52' W 075°13'0 0.6
2018-Jul-18 21:00N 39°52' W 075°13'3 5.4
2018-Jul-18 20:30N 39°51' W 075°17'2 3.5
2018-Jul-18 20:00N 39°51' W 075°15'3 6.4
2018-Jul-18 19:30N 39°54' W 075°12'0 0.0
2018-Jul-18 19:00N 39°54' W 075°12'0 0.0
2018-Jul-18 18:31N 39°54' W 075°12'0 0.0
2018-Jul-18 18:00N 39°54' W 075°12'0 0.0
2018-Jul-18 17:30N 39°54' W 075°12'0 0.0
2018-Jul-18 17:00N 39°54' W 075°12'0 0.0
2018-Jul-18 16:31N 39°54' W 075°12'0 0.0
2018-Jul-18 16:00N 39°54' W 075°12'0 0.0
2018-Jul-18 15:30N 39°54' W 075°12'0 0.0
2018-Jul-18 15:00N 39°54' W 075°12'0 0.0
2018-Jul-18 14:30N 39°54' W 075°12'0 0.0
2018-Jul-18 13:30N 39°54' W 075°12'0 0.0
2018-Jul-18 13:00N 39°54' W 075°12'1 2.0
2018-Jul-18 12:30N 39°53' W 075°11'3 6.6
2018-Jul-18 12:01N 39°55' W 075°08'3 6.8
2018-Jul-18 11:31N 39°58' W 075°07'1 0.7
2018-Jul-18 10:30N 39°59' W 075°06'1 3.0
2018-Jul-18 10:00N 39°58' W 075°08'4 8.7
2018-Jul-18 09:30N 39°54' W 075°08'3 5.5
2018-Jul-18 09:00N 39°54' W 075°12'0 0.0
2018-Jul-18 08:31N 39°54' W 075°12'0 0.0
2018-Jul-18 08:01N 39°54' W 075°12'0 0.0
2018-Jul-18 07:30N 39°54' W 075°12'0 0.0
2018-Jul-18 07:00N 39°54' W 075°12'0 0.0
2018-Jul-18 06:30N 39°54' W 075°12'0 0.0
2018-Jul-18 06:00N 39°54' W 075°12'0 0.0
2018-Jul-18 05:31N 39°54' W 075°12'0 0.0
2018-Jul-18 05:01N 39°54' W 075°12'0 0.0
2018-Jul-18 04:30N 39°54' W 075°12'0 0.0
2018-Jul-18 04:00N 39°54' W 075°12'0 0.0
2018-Jul-18 03:30N 39°54' W 075°12'0 0.0
2018-Jul-18 03:01N 39°54' W 075°12'0 0.0
2018-Jul-18 02:30N 39°54' W 075°12'0 0.0
2018-Jul-18 02:00N 39°54' W 075°12'0 0.0
2018-Jul-18 01:30N 39°54' W 075°12'0 0.0
2018-Jul-18 01:00N 39°54' W 075°12'0 0.0
2018-Jul-18 00:30N 39°54' W 075°12'0 0.0
2018-Jul-18 00:00N 39°54' W 075°12'0 0.0
2018-Jul-17 23:30N 39°54' W 075°12'0 0.0
2018-Jul-17 23:00N 39°54' W 075°12'0 0.0
2018-Jul-17 22:30N 39°54' W 075°12'0 0.2
2018-Jul-17 22:00N 39°54' W 075°12'3 6.3
2018-Jul-17 21:30N 39°51' W 075°14'5 9.7
2018-Jul-17 21:00N 39°51' W 075°21'3 5.3
2018-Jul-17 20:30N 39°49' W 075°24'1 2.6
2018-Jul-17 20:00N 39°48' W 075°25'0 0.7
2018-Jul-17 19:30N 39°48' W 075°25'1 1.1
2018-Jul-17 19:00N 39°49' W 075°24'0 0.1
2018-Jul-17 18:30N 39°49' W 075°24'0 0.2
2018-Jul-17 18:00N 39°49' W 075°24'2 4.1
2018-Jul-17 17:30N 39°48' W 075°27'2 4.1
2018-Jul-17 17:00N 39°49' W 075°24'0 0.0
2018-Jul-17 16:30N 39°49' W 075°24'0 1.0
2018-Jul-17 16:00N 39°48' W 075°24'0 0.8
2018-Jul-17 15:30N 39°49' W 075°24'0 0.1
2018-Jul-17 15:00N 39°49' W 075°24'0 0.3
2018-Jul-17 14:30N 39°49' W 075°24'4 8.4
2018-Jul-17 14:00N 39°51' W 075°20'3 6.2
2018-Jul-17 13:30N 39°51' W 075°16'0 0.0
2018-Jul-17 13:00N 39°51' W 075°16'0 0.0
2018-Jul-17 12:30N 39°51' W 075°16'0 0.0
2018-Jul-17 12:00N 39°51' W 075°16'0 0.0
2018-Jul-17 11:30N 39°51' W 075°16'0 0.0
2018-Jul-17 11:00N 39°51' W 075°16'0 0.0
2018-Jul-17 10:31N 39°51' W 075°16'0 0.0
2018-Jul-17 10:00N 39°51' W 075°16'0 0.0
2018-Jul-17 09:30N 39°51' W 075°16'0 0.0
2018-Jul-17 09:00N 39°51' W 075°16'0 0.6
2018-Jul-17 08:30N 39°51' W 075°15'4 7.0
2018-Jul-17 08:00N 39°53' W 075°11'1 2.9
2018-Jul-17 07:31N 39°53' W 075°10'0 0.6
2018-Jul-17 07:01N 39°53' W 075°10'1 1.3
2018-Jul-17 06:30N 39°53' W 075°11'0 0.0
2018-Jul-17 06:01N 39°53' W 075°11'0 0.0
2018-Jul-17 05:31N 39°53' W 075°11'0 0.0
2018-Jul-17 05:01N 39°53' W 075°11'1 1.4
2018-Jul-17 04:30N 39°53' W 075°11'1 1.9
2018-Jul-17 04:00N 39°54' W 075°12'0 0.0
2018-Jul-17 03:30N 39°54' W 075°12'0 0.0
2018-Jul-17 03:00N 39°54' W 075°12'0 0.0
2018-Jul-17 02:30N 39°54' W 075°12'0 0.0
2018-Jul-17 02:00N 39°54' W 075°12'0 0.0
2018-Jul-17 01:30N 39°54' W 075°12'0 0.0
2018-Jul-17 01:00N 39°54' W 075°12'0 0.0
2018-Jul-17 00:30N 39°54' W 075°12'0 0.0
2018-Jul-16 23:30N 39°54' W 075°12'0 0.0
2018-Jul-16 23:00N 39°54' W 075°12'0 0.0
2018-Jul-16 22:30N 39°54' W 075°12'0 0.0
2018-Jul-16 22:00N 39°54' W 075°12'2 4.5
2018-Jul-16 21:30N 39°52' W 075°13'5 9.0
2018-Jul-16 20:59N 39°51' W 075°19'4 8.1
2018-Jul-16 20:31N 39°49' W 075°24'0 0.9
2018-Jul-16 20:00N 39°49' W 075°24'0 0.2
2018-Jul-16 19:30N 39°49' W 075°24'0 0.2
2018-Jul-16 19:00N 39°49' W 075°24'0 0.0
2018-Jul-16 18:30N 39°49' W 075°24'1 2.7
2018-Jul-16 18:00N 39°48' W 075°26'1 2.7
2018-Jul-16 17:30N 39°49' W 075°24'1 1.4
2018-Jul-16 17:00N 39°49' W 075°24'2 4.9
2018-Jul-16 16:30N 39°51' W 075°21'3 6.2
2018-Jul-16 16:00N 39°51' W 075°17'4 7.3
2018-Jul-16 15:30N 39°52' W 075°13'2 3.2
2018-Jul-16 15:00N 39°54' W 075°12'0 0.0
2018-Jul-16 14:30N 39°54' W 075°12'0 0.0
2018-Jul-16 14:00N 39°54' W 075°12'0 0.0
2018-Jul-16 13:31N 39°54' W 075°12'0 0.0
2018-Jul-16 13:01N 39°54' W 075°12'0 0.0
2018-Jul-16 12:30N 39°54' W 075°12'0 0.0
2018-Jul-16 12:00N 39°54' W 075°12'0 0.0
2018-Jul-16 11:30N 39°54' W 075°12'0 0.0
2018-Jul-16 11:01N 39°54' W 075°12'0 0.0
2018-Jul-16 10:31N 39°54' W 075°12'0 0.0
2018-Jul-16 10:01N 39°54' W 075°12'0 0.0
2018-Jul-16 09:31N 39°54' W 075°12'0 0.0
2018-Jul-16 09:00N 39°54' W 075°12'2 3.9
2018-Jul-16 08:30N 39°52' W 075°13'0 0.0
2018-Jul-16 08:00N 39°52' W 075°13'0 0.0
2018-Jul-16 07:30N 39°52' W 075°13'0 0.0
2018-Jul-16 07:00N 39°52' W 075°13'0 0.2
2018-Jul-16 06:30N 39°52' W 075°13'2 3.6
2018-Jul-16 06:00N 39°51' W 075°15'2 3.7
2018-Jul-16 05:30N 39°52' W 075°13'2 3.9
2018-Jul-16 05:00N 39°54' W 075°12'0 0.0
2018-Jul-16 04:30N 39°54' W 075°12'0 0.0
2018-Jul-16 04:00N 39°54' W 075°12'0 0.0
2018-Jul-16 03:30N 39°54' W 075°12'0 0.0
2018-Jul-16 03:00N 39°54' W 075°12'0 0.0
2018-Jul-16 02:30N 39°54' W 075°12'0 0.0
2018-Jul-16 02:00N 39°54' W 075°12'0 0.0
2018-Jul-16 01:30N 39°54' W 075°12'0 0.0
2018-Jul-16 01:00N 39°54' W 075°12'0 0.0
2018-Jul-16 00:30N 39°54' W 075°12'0 0.0
2018-Jul-16 00:00N 39°54' W 075°12'0 0.0
2018-Jul-15 23:30N 39°54' W 075°12'0 0.0
2018-Jul-15 23:00N 39°54' W 075°12'0 0.0
2018-Jul-15 22:30N 39°54' W 075°12'0 0.0
2018-Jul-15 22:00N 39°54' W 075°12'0 0.0
2018-Jul-15 21:30N 39°54' W 075°12'0 0.0
2018-Jul-15 21:00N 39°54' W 075°12'0 0.0
2018-Jul-15 20:30N 39°54' W 075°12'0 0.0
2018-Jul-15 20:00N 39°54' W 075°12'0 0.0
2018-Jul-15 19:30N 39°54' W 075°12'0 0.0
2018-Jul-15 19:00N 39°54' W 075°12'0 0.0
2018-Jul-15 18:30N 39°54' W 075°12'0 0.0
2018-Jul-15 18:00N 39°54' W 075°12'0 0.0
2018-Jul-15 17:26N 39°54' W 075°12'0 0.0
2018-Jul-15 17:00N 39°54' W 075°12'0 0.0
2018-Jul-15 16:30N 39°54' W 075°12'0 0.0
2018-Jul-15 16:00N 39°54' W 075°12'0 0.0
2018-Jul-15 15:30N 39°54' W 075°12'0 0.0
2018-Jul-15 15:00N 39°54' W 075°12'0 0.0
2018-Jul-15 14:30N 39°54' W 075°12'0 0.0
2018-Jul-15 14:00N 39°54' W 075°12'2 3.0
2018-Jul-15 13:30N 39°53' W 075°10'2 4.1
2018-Jul-15 13:00N 39°54' W 075°08'0 0.0
2018-Jul-15 12:30N 39°54' W 075°08'0 0.0
2018-Jul-15 12:00N 39°54' W 075°08'0 0.0
2018-Jul-15 11:30N 39°54' W 075°08'0 0.0
2018-Jul-15 11:01N 39°54' W 075°08'0 0.0
2018-Jul-15 10:30N 39°54' W 075°08'0 0.3
2018-Jul-15 10:00N 39°54' W 075°08'0 0.0
2018-Jul-15 09:30N 39°54' W 075°08'0 0.0
2018-Jul-15 09:00N 39°54' W 075°08'0 0.0
2018-Jul-15 08:30N 39°54' W 075°08'0 0.0
2018-Jul-15 08:00N 39°54' W 075°08'0 0.0
2018-Jul-15 07:30N 39°54' W 075°08'0 0.0
2018-Jul-15 07:00N 39°54' W 075°08'0 0.0
2018-Jul-15 06:31N 39°54' W 075°08'0 0.3
2018-Jul-15 06:00N 39°54' W 075°08'1 1.7
2018-Jul-15 05:30N 39°55' W 075°08'0 0.5
2018-Jul-15 05:00N 39°55' W 075°08'1 2.7
2018-Jul-15 04:30N 39°54' W 075°08'3 5.8
2018-Jul-15 04:00N 39°54' W 075°12'0 0.3
2018-Jul-15 03:30N 39°54' W 075°12'0 0.0
2018-Jul-15 03:00N 39°54' W 075°12'0 0.0
2018-Jul-15 02:31N 39°54' W 075°12'0 0.0
2018-Jul-15 02:00N 39°54' W 075°12'0 0.0
2018-Jul-15 01:31N 39°54' W 075°12'0 0.0
2018-Jul-15 01:00N 39°54' W 075°12'0 0.5
2018-Jul-15 00:30N 39°54' W 075°12'0 0.5
2018-Jul-15 00:00N 39°54' W 075°12'0 0.0
2018-Jul-14 23:30N 39°54' W 075°12'0 0.0
2018-Jul-14 23:01N 39°54' W 075°12'0 0.0
2018-Jul-14 22:30N 39°54' W 075°12'0 0.0
2018-Jul-14 22:00N 39°54' W 075°12'0 0.0
2018-Jul-14 21:30N 39°54' W 075°12'0 0.0
2018-Jul-14 21:00N 39°54' W 075°12'0 0.0
2018-Jul-14 20:30N 39°54' W 075°12'0 0.0
2018-Jul-14 20:00N 39°54' W 075°12'0 0.0
2018-Jul-14 19:30N 39°54' W 075°12'0 0.0
2018-Jul-14 19:00N 39°54' W 075°12'0 0.0
2018-Jul-14 18:30N 39°54' W 075°12'0 0.0
2018-Jul-14 18:00N 39°54' W 075°12'0 0.0
2018-Jul-14 17:30N 39°54' W 075°12'0 0.0
2018-Jul-14 17:00N 39°54' W 075°12'0 0.0
2018-Jul-14 16:30N 39°54' W 075°12'0 0.0
2018-Jul-14 16:00N 39°54' W 075°12'1 1.5
2018-Jul-14 15:30N 39°53' W 075°12'3 6.2
2018-Jul-14 15:00N 39°54' W 075°08'0 0.7
2018-Jul-14 14:30N 39°54' W 075°08'0 0.4
2018-Jul-14 13:31N 39°54' W 075°08'0 0.0
2018-Jul-14 13:00N 39°54' W 075°08'0 0.0
2018-Jul-14 12:30N 39°54' W 075°08'0 0.0
2018-Jul-14 12:00N 39°54' W 075°08'0 0.0
2018-Jul-14 11:30N 39°54' W 075°08'0 0.0
2018-Jul-14 11:00N 39°54' W 075°08'1 2.8
2018-Jul-14 10:30N 39°53' W 075°09'2 4.7
2018-Jul-14 10:00N 39°53' W 075°12'0 0.6
2018-Jul-14 09:30N 39°54' W 075°12'0 0.0
2018-Jul-14 09:00N 39°54' W 075°12'0 0.0
2018-Jul-14 08:30N 39°54' W 075°12'0 0.0
2018-Jul-14 08:00N 39°54' W 075°12'0 0.0
2018-Jul-14 07:30N 39°54' W 075°12'0 0.0
2018-Jul-14 07:00N 39°54' W 075°12'0 0.0
2018-Jul-14 06:30N 39°54' W 075°12'0 0.0
2018-Jul-14 06:00N 39°54' W 075°12'0 0.0
2018-Jul-14 05:31N 39°54' W 075°12'0 0.0
2018-Jul-14 05:00N 39°54' W 075°12'0 0.0
2018-Jul-14 04:30N 39°54' W 075°12'0 0.0
2018-Jul-14 04:00N 39°54' W 075°12'0 0.0
2018-Jul-14 03:30N 39°54' W 075°12'0 0.0
2018-Jul-14 03:00N 39°54' W 075°12'0 0.0
2018-Jul-14 02:31N 39°54' W 075°12'0 0.0
2018-Jul-14 02:00N 39°54' W 075°12'0 0.5
2018-Jul-14 01:30N 39°54' W 075°12'0 0.2
2018-Jul-14 01:00N 39°54' W 075°12'0 0.4
2018-Jul-14 00:30N 39°54' W 075°12'0 0.0
2018-Jul-14 00:00N 39°54' W 075°12'0 0.0
2018-Jul-13 23:30N 39°54' W 075°12'0 0.0
2018-Jul-13 23:00N 39°54' W 075°12'0 0.0
2018-Jul-13 22:30N 39°54' W 075°12'0 0.0
2018-Jul-13 22:00N 39°54' W 075°12'0 0.0
2018-Jul-13 21:30N 39°54' W 075°12'0 0.0
2018-Jul-13 20:59N 39°54' W 075°12'0 0.0
2018-Jul-13 20:30N 39°54' W 075°12'0 0.0
2018-Jul-13 20:00N 39°54' W 075°12'0 0.0
2018-Jul-13 19:30N 39°54' W 075°12'0 0.0
2018-Jul-13 19:00N 39°54' W 075°12'0 0.0
2018-Jul-13 18:30N 39°54' W 075°12'0 0.0
2018-Jul-13 18:00N 39°54' W 075°12'0 0.0
2018-Jul-13 17:30N 39°54' W 075°12'0 0.0
2018-Jul-13 17:00N 39°54' W 075°12'0 0.0
2018-Jul-13 16:30N 39°54' W 075°12'0 0.0
2018-Jul-13 16:00N 39°54' W 075°12'0 0.0
2018-Jul-13 15:30N 39°54' W 075°12'0 0.0
2018-Jul-13 15:00N 39°54' W 075°12'0 0.0
2018-Jul-13 14:00N 39°54' W 075°12'0 0.0
2018-Jul-13 13:30N 39°54' W 075°12'0 0.0
2018-Jul-13 13:01N 39°54' W 075°12'0 0.0
2018-Jul-13 12:30N 39°54' W 075°12'0 0.0
2018-Jul-13 12:00N 39°54' W 075°12'0 0.0
2018-Jul-13 11:29N 39°54' W 075°12'0 0.0
2018-Jul-13 11:00N 39°54' W 075°12'0 0.0
2018-Jul-13 10:30N 39°54' W 075°12'0 0.0
2018-Jul-13 10:00N 39°54' W 075°12'0 0.0
2018-Jul-13 09:30N 39°54' W 075°12'0 0.0
2018-Jul-13 09:00N 39°54' W 075°12'0 0.0
2018-Jul-13 08:30N 39°54' W 075°12'0 0.0
2018-Jul-13 08:00N 39°54' W 075°12'0 0.0
2018-Jul-13 07:30N 39°54' W 075°12'0 0.0
2018-Jul-13 07:00N 39°54' W 075°12'0 0.0
2018-Jul-13 06:30N 39°54' W 075°12'0 0.0
2018-Jul-13 06:00N 39°54' W 075°12'0 0.0
2018-Jul-13 05:30N 39°54' W 075°12'0 0.0
2018-Jul-13 05:00N 39°54' W 075°12'0 0.0
2018-Jul-13 04:30N 39°54' W 075°12'0 0.0
2018-Jul-13 04:00N 39°54' W 075°12'0 0.0
2018-Jul-13 03:30N 39°54' W 075°12'0 0.0
2018-Jul-13 03:00N 39°54' W 075°12'0 0.0
2018-Jul-13 02:30N 39°54' W 075°12'0 0.0
2018-Jul-13 02:00N 39°54' W 075°12'0 0.0
2018-Jul-13 01:30N 39°54' W 075°12'0 0.0
2018-Jul-13 01:00N 39°54' W 075°12'0 0.0
2018-Jul-13 00:30N 39°54' W 075°12'0 0.0
2018-Jul-13 00:00N 39°54' W 075°12'0 0.0
2018-Jul-12 23:30N 39°54' W 075°12'0 0.0
2018-Jul-12 23:00N 39°54' W 075°12'0 0.0
2018-Jul-12 22:30N 39°54' W 075°12'0 0.0
2018-Jul-12 22:00N 39°54' W 075°12'0 0.0
2018-Jul-12 21:30N 39°54' W 075°12'0 0.0
2018-Jul-12 21:00N 39°54' W 075°12'0 0.0
2018-Jul-12 20:30N 39°54' W 075°12'0 0.0
2018-Jul-12 20:00N 39°54' W 075°12'0 0.0
2018-Jul-12 19:30N 39°54' W 075°12'0 0.0
2018-Jul-12 19:00N 39°54' W 075°12'0 0.0
2018-Jul-12 18:29N 39°54' W 075°12'0 0.0
2018-Jul-12 18:00N 39°54' W 075°12'0 0.0
2018-Jul-12 17:30N 39°54' W 075°12'0 0.0
2018-Jul-12 17:00N 39°54' W 075°12'0 0.0
2018-Jul-12 16:30N 39°54' W 075°12'0 0.0
2018-Jul-12 16:00N 39°54' W 075°12'0 0.0
2018-Jul-12 15:30N 39°54' W 075°12'0 0.0
2018-Jul-12 15:00N 39°54' W 075°12'0 0.0
2018-Jul-12 14:30N 39°54' W 075°12'0 0.0
2018-Jul-12 14:00N 39°54' W 075°12'0 0.0
2018-Jul-12 13:30N 39°54' W 075°12'0 0.0
2018-Jul-12 13:00N 39°54' W 075°12'0 0.0
2018-Jul-12 12:30N 39°54' W 075°12'0 0.0
2018-Jul-12 12:00N 39°54' W 075°12'0 0.0
2018-Jul-12 11:30N 39°54' W 075°12'0 0.0
2018-Jul-12 11:00N 39°54' W 075°12'0 0.0
2018-Jul-12 10:30N 39°54' W 075°12'0 0.0
2018-Jul-12 10:00N 39°54' W 075°12'0 0.0
2018-Jul-12 09:30N 39°54' W 075°12'0 0.0
2018-Jul-12 09:00N 39°54' W 075°12'0 0.0
2018-Jul-12 08:30N 39°54' W 075°12'0 0.0
2018-Jul-12 08:00N 39°54' W 075°12'0 0.0
2018-Jul-12 07:30N 39°54' W 075°12'0 0.0
2018-Jul-12 07:00N 39°54' W 075°12'0 0.0
2018-Jul-12 06:30N 39°54' W 075°12'0 0.0
2018-Jul-12 06:00N 39°54' W 075°12'0 0.0
2018-Jul-12 05:30N 39°54' W 075°12'0 0.0
2018-Jul-12 05:00N 39°54' W 075°12'0 0.0
2018-Jul-12 04:30N 39°54' W 075°12'0 0.0
2018-Jul-12 04:00N 39°54' W 075°12'0 0.0
2018-Jul-12 03:30N 39°54' W 075°12'0 0.0
2018-Jul-12 03:00N 39°54' W 075°12'0 0.0
2018-Jul-12 02:30N 39°54' W 075°12'0 0.0
2018-Jul-12 02:00N 39°54' W 075°12'0 0.0
2018-Jul-12 01:30N 39°54' W 075°12'0 0.0
2018-Jul-12 01:00N 39°54' W 075°12'0 0.0
2018-Jul-12 00:30N 39°54' W 075°12'0 0.0
2018-Jul-12 00:00N 39°54' W 075°12'0 0.0
2018-Jul-11 23:30N 39°54' W 075°12'0 0.0
2018-Jul-11 23:00N 39°54' W 075°12'0 0.6
2018-Jul-11 22:30N 39°53' W 075°12'3 5.2
2018-Jul-11 22:00N 39°54' W 075°08'2 4.7
2018-Jul-11 21:30N 39°53' W 075°11'1 2.1
2018-Jul-11 21:00N 39°54' W 075°12'0 0.0
2018-Jul-11 20:30N 39°54' W 075°12'0 0.0
2018-Jul-11 20:01N 39°54' W 075°12'0 0.0
2018-Jul-11 19:30N 39°54' W 075°12'3 5.1
2018-Jul-11 19:00N 39°52' W 075°14'4 8.5
2018-Jul-11 18:30N 39°51' W 075°19'4 8.4
2018-Jul-11 18:00N 39°49' W 075°24'5 8.9
2018-Jul-11 17:28N 39°46' W 075°29'3 7.3
2018-Jul-11 17:01N 39°43' W 075°31'0 0.3
2018-Jul-11 16:30N 39°43' W 075°31'1 1.8
2018-Jul-11 16:00N 39°43' W 075°30'1 2.5
2018-Jul-11 15:30N 39°44' W 075°30'4 8.9
2018-Jul-11 15:01N 39°47' W 075°27'4 8.9
2018-Jul-11 14:30N 39°50' W 075°22'4 7.9
2018-Jul-11 14:00N 39°51' W 075°17'4 7.7
2018-Jul-11 13:30N 39°52' W 075°12'1 2.9
2018-Jul-11 13:00N 39°54' W 075°12'0 0.0
2018-Jul-11 12:30N 39°54' W 075°12'0 0.0
2018-Jul-11 12:01N 39°54' W 075°12'0 0.0
2018-Jul-11 11:31N 39°54' W 075°12'0 0.0
2018-Jul-11 11:00N 39°54' W 075°12'0 0.0
2018-Jul-11 10:30N 39°54' W 075°12'0 0.0
2018-Jul-11 10:00N 39°54' W 075°12'0 0.0
2018-Jul-11 09:31N 39°54' W 075°12'0 0.0
2018-Jul-11 09:00N 39°54' W 075°12'0 0.0
2018-Jul-11 08:30N 39°54' W 075°12'0 0.0
2018-Jul-11 08:00N 39°54' W 075°12'0 0.0
2018-Jul-11 07:31N 39°54' W 075°12'0 0.0
2018-Jul-11 07:00N 39°54' W 075°12'0 0.0
2018-Jul-11 06:30N 39°54' W 075°12'0 0.0
2018-Jul-11 06:00N 39°54' W 075°12'0 0.0
2018-Jul-11 05:31N 39°54' W 075°12'0 0.0
2018-Jul-11 05:00N 39°54' W 075°12'0 0.0
2018-Jul-11 04:31N 39°54' W 075°12'0 0.0
2018-Jul-11 04:01N 39°54' W 075°12'0 0.0
2018-Jul-11 03:31N 39°54' W 075°12'0 0.0
2018-Jul-11 03:01N 39°54' W 075°12'0 0.0
2018-Jul-11 02:29N 39°54' W 075°12'3 7.2
2018-Jul-11 02:00N 39°51' W 075°15'611.5
2018-Jul-11 01:30N 39°50' W 075°22'1 1.4
2018-Jul-11 01:00N 39°49' W 075°23'5 9.9
2018-Jul-11 00:30N 39°46' W 075°28'510.1
2018-Jul-11 00:01N 39°42' W 075°31'5 9.9
2018-Jul-10 23:31N 39°38' W 075°34'4 8.4
2018-Jul-10 23:01N 39°34' W 075°34'4 8.1
2018-Jul-10 22:30N 39°33' W 075°39'4 9.0
2018-Jul-10 22:01N 39°32' W 075°45'4 8.6
2018-Jul-10 21:31N 39°32' W 075°50'5 9.2
2018-Jul-10 21:01N 39°30' W 075°56'5 9.6
2018-Jul-10 20:27N 39°26' W 076°00'26 7.4
2018-Jul-10 16:58N 39°11' W 076°28'5 0.5
2018-Jul-10 05:41N 39°13' W 076°34'0 0.0
2018-Jul-10 05:20N 39°13' W 076°34'0 0.1
2018-Jul-10 05:00N 39°13' W 076°34'2 4.6
2018-Jul-10 04:30N 39°13' W 076°31'4 8.8
2018-Jul-10 04:00N 39°11' W 076°26'5 8.6
2018-Jul-10 03:22N 39°09' W 076°20'4 8.6
2018-Jul-10 02:58N 39°11' W 076°17'21 9.3
2018-Jul-10 00:41N 39°27' W 075°59'4 8.8
2018-Jul-10 00:16N 39°30' W 075°55'2 7.6
2018-Jul-10 00:00N 39°31' W 075°53'4 7.8
2018-Jul-09 23:30N 39°32' W 075°48'4 8.6
2018-Jul-09 23:01N 39°33' W 075°43'4 8.1
2018-Jul-09 22:30N 39°33' W 075°38'4 7.2
2018-Jul-09 22:01N 39°34' W 075°33'3 6.8
2018-Jul-09 21:31N 39°38' W 075°34'4 8.0
2018-Jul-09 21:00N 39°41' W 075°31'5 9.3
2018-Jul-09 20:30N 39°45' W 075°29'510.0
2018-Jul-09 20:00N 39°49' W 075°24'2 4.8
2018-Jul-09 19:31N 39°50' W 075°22'611.4
2018-Jul-09 19:00N 39°51' W 075°15'3 6.7
2018-Jul-09 18:30N 39°54' W 075°12'0 0.0
2018-Jul-09 18:00N 39°54' W 075°12'0 0.0
2018-Jul-09 17:30N 39°54' W 075°12'0 0.0
2018-Jul-09 17:00N 39°54' W 075°12'0 0.0
2018-Jul-09 16:30N 39°54' W 075°12'0 0.0
2018-Jul-09 16:00N 39°54' W 075°12'0 0.0
2018-Jul-09 15:30N 39°54' W 075°12'0 0.0
2018-Jul-09 15:00N 39°54' W 075°12'0 0.0
2018-Jul-09 14:30N 39°54' W 075°12'0 0.0
2018-Jul-09 14:00N 39°54' W 075°12'0 0.0
2018-Jul-09 13:31N 39°54' W 075°12'0 0.0
2018-Jul-09 13:01N 39°54' W 075°12'  

Dump ship's entire track history